Observations for BRISTOL LULSGATE, United Kingdom (EGGD)

EGGD 140820Z AUTO 22005KT 9999 OVC030 17/16 Q1017   
EGGD 140750Z AUTO 22005KT 9999 OVC031 17/15 Q1017   
EGGD 140720Z AUTO 25005KT 9999 OVC033 17/15 Q1016   
EGGD 140650Z AUTO 24004KT 9999 OVC034 16/15 Q1016   
EGGD 140620Z AUTO 23004KT 9999 OVC032 15/15 Q1016   
EGGD 140550Z AUTO 24005KT 9999 OVC031 15/15 Q1016   
EGGD 140520Z AUTO 23004KT 9999 OVC031 15/15 Q1016   
EGGD 140450Z AUTO 30003KT 9999 OVC031 15/15 Q1015   
EGGD 140420Z AUTO 26005KT 9000 FEW005 OVC032 15/15 Q1015
EGGD 140350Z AUTO 27007KT 7000 BKN004 OVC035 15/15 Q1015
EGGD 140320Z AUTO 27008KT 8000 SCT007 BKN028 BKN035 15/15 Q1015 
EGGD 140250Z AUTO 26010KT 9999 BKN006 BKN009 BKN024 16/16 Q1015 
EGGD 140220Z AUTO 26006KT 9999 FEW008 SCT031 15/15 Q1015
EGGD 140150Z AUTO 26006KT 9999 BKN027 OVC043 16/16 Q1015
EGGD 140120Z AUTO 26007KT 9999 FEW011 OVC037 15/15 Q1015
EGGD 140050Z AUTO 26005KT 9999 SCT022 OVC041 15/14 Q1015
EGGD 140020Z AUTO 26005KT 9999 FEW020 OVC043 15/14 Q1015
EGGD 132350Z AUTO 28005KT 9999 BKN046 14/13 Q1014   
EGGD 132320Z AUTO 28004KT 9999 SCT045 14/13 Q1014   
EGGD 132250Z AUTO 29006KT 9999 NCD 15/13 Q1014  
EGGD 132220Z AUTO 28008KT 9999 NCD 15/13 Q1014  
EGGD 132150Z AUTO 27009KT 9999 NCD 16/14 Q1014  
EGGD 132120Z AUTO 29006KT 9999 NCD 15/13 Q1013  
EGGD 132050Z AUTO 29009KT 9999 NCD 16/13 Q1013  
EGGD 132020Z AUTO 30007KT 9999 NCD 16/13 Q1013  
EGGD 131950Z AUTO 30007KT 9999 NCD 17/13 Q1012  
EGGD 131920Z AUTO 30009KT 9999 NCD 18/13 Q1012  
EGGD 131850Z AUTO 30009KT 9999 FEW046 19/14 Q1011   
EGGD 131820Z AUTO 28009KT 9999 SCT037 BKN044 19/15 Q1011
EGGD 131750Z AUTO 28009KT 9999 FEW039 OVC049 19/15 Q1011
EGGD 131720Z AUTO 28011KT 9999 BKN027 BKN032 19/15 Q1011
EGGD 131650Z AUTO 28013KT 9999 BKN025 OVC032 19/15 Q1010
EGGD 131620Z AUTO 28013KT 9999 BKN024 19/16 Q1010   
EGGD 131550Z AUTO 28013KT 9999 FEW017 19/16 Q1010   
EGGD 131520Z AUTO 28013KT 9999 FEW021 SCT030 20/16 Q1010
EGGD 131450Z AUTO 28012KT 9999 SCT022 BKN029 BKN036 20/16 Q1009 
EGGD 131420Z AUTO 26010KT 9999 FEW020 SCT031 20/17 Q1009
EGGD 131350Z AUTO 26011KT 9999 FEW018 BKN023 21/16 Q1009
EGGD 131320Z AUTO 28012KT 9999 SCT016 20/16 Q1009   
EGGD 131250Z AUTO 25011KT 9999 BKN011 20/17 Q1009   
EGGD 131220Z AUTO 27011KT 9999 SCT013 BKN035 20/17 Q1009
EGGD 131150Z AUTO 26007KT 210V300 9999 BKN012 BKN019 19/17 Q1009
EGGD 131120Z AUTO 26008KT 220V290 9999 FEW012 SCT025 19/16 Q1009
EGGD 131050Z 27010KT 9999 SCT015 SCT027 19/16 Q1008 
EGGD 131020Z 26009KT 9999 SCT013 BKN026 18/16 Q1008 
EGGD 130950Z 28007KT 9999 SCT014 BKN039 18/16 Q1008 
EGGD 130920Z AUTO 29010KT 250V310 9999 BKN014/// BKN032/// //////TCU 18/15 Q1008
EGGD 130850Z AUTO 27011KT 9999 NCD 18/15 Q1008  
EGGD 130820Z AUTO 27009KT 9999 NCD 17/15 Q1008  
EGGD 130750Z AUTO 27010KT 9999 FEW007 17/16 Q1008